createdAt,value
2019-04-29T00:02:36.279Z,74.61
2019-04-29T00:05:08.941Z,74.64
2019-04-29T00:07:40.565Z,74.83
2019-04-29T00:10:15.871Z,74.63
2019-04-29T00:12:47.286Z,74.10
2019-04-29T00:15:36.831Z,74.21
2019-04-29T00:18:13.818Z,74.17
2019-04-29T00:20:48.625Z,74.44
2019-04-29T00:23:19.991Z,74.31
2019-04-29T00:25:51.864Z,75.24
2019-04-29T00:28:23.362Z,75.35
2019-04-29T00:30:54.832Z,75.20
2019-04-29T00:33:26.372Z,75.14
2019-04-29T00:35:57.613Z,75.01
2019-04-29T00:38:51.022Z,75.06
2019-04-29T00:41:44.471Z,75.84
2019-04-29T00:44:17.936Z,74.78
2019-04-29T00:46:49.545Z,75.17
2019-04-29T00:49:20.984Z,74.92
2019-04-29T00:51:52.337Z,74.65
2019-04-29T00:54:32.658Z,74.83
2019-04-29T00:57:04.085Z,74.03
2019-04-29T00:59:35.362Z,74.17
2019-04-29T01:02:08.797Z,73.87
2019-04-29T01:04:40.224Z,74.18
2019-04-29T01:07:11.735Z,74.23
2019-04-29T01:09:43.312Z,74.42
2019-04-29T01:12:14.931Z,74.06
2019-04-29T01:14:46.293Z,74.28
2019-04-29T01:17:17.803Z,74.31
2019-04-29T01:19:49.238Z,74.27
2019-04-29T01:22:21.143Z,74.34
2019-04-29T01:24:52.965Z,74.01
2019-04-29T01:27:29.076Z,73.93
2019-04-29T01:30:00.466Z,73.79
2019-04-29T01:32:31.831Z,73.36
2019-04-29T01:35:03.141Z,73.78
2019-04-29T01:37:39.651Z,73.36
2019-04-29T01:40:33.273Z,73.36
2019-04-29T01:43:04.676Z,73.67
2019-04-29T01:45:36.607Z,73.49
2019-04-29T01:48:08.380Z,74.15
2019-04-29T01:50:39.818Z,74.46
2019-04-29T01:53:11.095Z,74.35
2019-04-29T01:55:42.553Z,74.94
2019-04-29T01:58:15.177Z,74.60
2019-04-29T02:00:46.583Z,74.77
2019-04-29T02:03:17.784Z,75.14
2019-04-29T02:05:49.333Z,75.35
2019-04-29T02:08:20.809Z,75.03
2019-04-29T02:10:52.342Z,75.47
2019-04-29T02:13:23.607Z,75.34
2019-04-29T02:15:54.890Z,75.38
2019-04-29T02:18:26.513Z,76.06
2019-04-29T02:20:57.850Z,76.07
2019-04-29T02:23:40.601Z,75.83
2019-04-29T02:26:11.889Z,75.35
2019-04-29T02:28:43.483Z,75.60
2019-04-29T02:31:33.082Z,74.64
2019-04-29T02:34:04.471Z,74.84
2019-04-29T02:36:35.978Z,74.07
2019-04-29T02:39:33.037Z,74.08
2019-04-29T02:42:26.917Z,74.24
2019-04-29T02:45:02.873Z,74.73
2019-04-29T02:47:35.283Z,74.29
2019-04-29T02:50:07.380Z,74.13
2019-04-29T02:52:39.070Z,74.61
2019-04-29T02:55:12.428Z,73.77
2019-04-29T02:58:02.818Z,74.02
2019-04-29T03:00:59.400Z,73.83
2019-04-29T03:03:48.069Z,73.89
2019-04-29T03:06:19.604Z,74.17
2019-04-29T03:08:51.057Z,74.24
2019-04-29T03:11:23.567Z,74.14
2019-04-29T03:13:54.893Z,73.80
2019-04-29T03:16:26.298Z,74.12
2019-04-29T03:19:01.884Z,73.89
2019-04-29T03:21:41.545Z,73.59
2019-04-29T03:24:12.821Z,73.87
2019-04-29T03:26:44.277Z,74.05
2019-04-29T03:29:25.014Z,74.61
2019-04-29T03:31:57.939Z,74.33
2019-04-29T03:34:29.424Z,74.47
2019-04-29T03:37:00.885Z,74.51
2019-04-29T03:39:32.463Z,75.22
2019-04-29T03:42:07.193Z,75.13
2019-04-29T03:44:36.888Z,75.05
2019-04-29T03:47:08.119Z,74.71
2019-04-29T03:49:40.788Z,75.00
2019-04-29T03:52:12.474Z,75.39
2019-04-29T03:54:43.996Z,75.12
2019-04-29T03:57:16.828Z,75.28
2019-04-29T03:59:48.154Z,75.88
2019-04-29T04:02:50.372Z,75.31
2019-04-29T04:05:30.358Z,75.36
2019-04-29T04:08:09.968Z,75.34
2019-04-29T04:10:41.138Z,75.69
2019-04-29T04:13:12.413Z,75.36
2019-04-29T04:15:43.779Z,75.74
2019-04-29T04:18:28.941Z,76.10
2019-04-29T04:21:00.339Z,75.42
2019-04-29T04:23:31.874Z,75.72
2019-04-29T04:26:03.163Z,75.80
2019-04-29T04:28:34.829Z,76.30
2019-04-29T04:31:07.223Z,76.81
2019-04-29T04:33:38.809Z,76.34
2019-04-29T04:36:09.983Z,75.50
2019-04-29T04:38:41.227Z,75.96
2019-04-29T04:41:12.482Z,76.77
2019-04-29T04:43:43.924Z,76.40
2019-04-29T04:46:15.166Z,76.12
2019-04-29T04:48:46.410Z,75.94
2019-04-29T04:51:18.409Z,76.70
2019-04-29T04:53:49.776Z,76.69
2019-04-29T04:56:21.031Z,76.89
2019-04-29T04:58:52.909Z,76.89
2019-04-29T05:01:24.086Z,76.78
2019-04-29T05:03:55.565Z,76.82
2019-04-29T05:06:26.912Z,76.99
2019-04-29T05:08:58.395Z,76.41
2019-04-29T05:11:29.712Z,76.66
2019-04-29T05:14:00.904Z,76.20
2019-04-29T05:16:32.172Z,76.20
2019-04-29T05:19:03.446Z,75.66
2019-04-29T05:21:34.758Z,75.97
2019-04-29T05:24:06.386Z,76.03
2019-04-29T05:26:38.431Z,75.56
2019-04-29T05:29:09.978Z,75.07
2019-04-29T05:31:41.303Z,74.76
2019-04-29T05:34:13.393Z,74.83
2019-04-29T05:37:06.854Z,74.19
2019-04-29T05:39:40.464Z,74.08
2019-04-29T05:42:16.093Z,74.27
2019-04-29T05:45:06.520Z,74.12
2019-04-29T05:47:40.586Z,73.48
2019-04-29T05:50:33.720Z,74.12
2019-04-29T05:53:23.894Z,73.26
2019-04-29T05:55:55.335Z,73.20
2019-04-29T05:58:26.727Z,73.40
2019-04-29T06:01:02.368Z,73.33
2019-04-29T06:03:37.847Z,73.41
2019-04-29T06:06:07.104Z,72.87
2019-04-29T06:08:39.015Z,73.56
2019-04-29T06:11:11.053Z,72.80
2019-04-29T06:13:42.291Z,72.17
2019-04-29T06:16:20.612Z,72.19
2019-04-29T06:18:49.677Z,71.17
2019-04-29T06:21:21.259Z,70.97
2019-04-29T06:23:54.543Z,70.34
2019-04-29T06:26:25.964Z,70.71
2019-04-29T06:28:57.206Z,70.20
2019-04-29T06:31:29.082Z,69.71
2019-04-29T06:34:00.707Z,69.87
2019-04-29T06:36:33.317Z,69.65
2019-04-29T06:39:07.495Z,69.52
2019-04-29T06:41:40.505Z,69.35
2019-04-29T06:44:16.644Z,69.44
2019-04-29T06:46:45.185Z,69.92
2019-04-29T06:49:16.358Z,68.68
2019-04-29T06:51:47.937Z,69.12
2019-04-29T06:54:19.098Z,69.28
2019-04-29T06:56:50.566Z,68.69
2019-04-29T06:59:21.910Z,69.50
2019-04-29T07:01:53.534Z,69.10
2019-04-29T07:04:25.037Z,68.58
2019-04-29T07:06:57.660Z,68.36
2019-04-29T07:09:29.220Z,69.66
2019-04-29T07:12:01.576Z,69.27
2019-04-29T07:14:38.141Z,68.17
2019-04-29T07:17:07.693Z,68.48
2019-04-29T07:19:39.038Z,68.35
2019-04-29T07:22:10.384Z,68.44
2019-04-29T07:24:41.640Z,68.52
2019-04-29T07:27:12.923Z,68.81
2019-04-29T07:29:44.177Z,68.20
2019-04-29T07:32:15.366Z,68.11
2019-04-29T07:34:46.841Z,68.49
2019-04-29T07:37:18.099Z,69.06
2019-04-29T07:39:49.434Z,67.99
2019-04-29T07:42:25.005Z,68.46
2019-04-29T07:45:23.702Z,67.99
2019-04-29T07:47:56.534Z,68.33
2019-04-29T07:50:28.607Z,67.24
2019-04-29T07:52:59.928Z,66.17
2019-04-29T07:55:32.579Z,66.29
2019-04-29T07:58:04.006Z,67.37
2019-04-29T08:00:36.661Z,66.45
2019-04-29T08:03:09.600Z,66.07
2019-04-29T08:05:41.988Z,65.81
2019-04-29T08:08:16.638Z,65.33
2019-04-29T08:10:56.195Z,65.49
2019-04-29T08:13:24.901Z,65.12
2019-04-29T08:15:56.367Z,65.07
2019-04-29T08:18:27.710Z,65.05
2019-04-29T08:20:59.034Z,64.44
2019-04-29T08:23:32.578Z,64.86
2019-04-29T08:26:04.514Z,64.03
2019-04-29T08:28:35.829Z,65.31
2019-04-29T08:31:07.283Z,64.69
2019-04-29T08:33:38.577Z,64.69
2019-04-29T08:36:10.270Z,64.32
2019-04-29T08:38:41.947Z,64.13
2019-04-29T08:41:13.287Z,63.71
2019-04-29T08:44:16.038Z,64.27
2019-04-29T08:46:51.383Z,63.65
2019-04-29T08:49:17.662Z,64.25
2019-04-29T08:51:49.333Z,64.38
2019-04-29T08:54:21.395Z,64.68
2019-04-29T08:57:02.889Z,63.53
2019-04-29T08:59:25.898Z,63.67
2019-04-29T09:01:57.276Z,64.06
2019-04-29T09:04:33.354Z,63.84
2019-04-29T09:07:12.421Z,63.39
2019-04-29T09:09:35.211Z,63.44
2019-04-29T09:12:06.740Z,63.11
2019-04-29T09:14:39.125Z,62.13
2019-04-29T09:17:20.108Z,62.32
2019-04-29T09:19:44.607Z,62.42
2019-04-29T09:22:18.121Z,61.49
2019-04-29T09:25:07.223Z,61.57
2019-04-29T09:27:44.592Z,60.72
2019-04-29T09:30:15.938Z,60.42
2019-04-29T09:32:47.784Z,59.65
2019-04-29T09:35:20.110Z,59.44
2019-04-29T09:37:53.802Z,59.14
2019-04-29T09:40:26.155Z,58.84
2019-04-29T09:43:15.305Z,59.82
2019-04-29T09:45:53.855Z,58.07
2019-04-29T09:48:25.006Z,57.71
2019-04-29T09:50:56.203Z,58.40
2019-04-29T09:53:27.869Z,58.06
2019-04-29T09:55:59.462Z,58.12
2019-04-29T09:58:31.044Z,57.99
2019-04-29T10:01:28.880Z,58.19
2019-04-29T10:04:13.260Z,58.21
2019-04-29T10:06:45.836Z,57.72
2019-04-29T10:09:17.233Z,58.53
2019-04-29T10:11:48.566Z,57.97
2019-04-29T10:14:19.973Z,58.15
2019-04-29T10:17:15.329Z,58.72
2019-04-29T10:20:07.870Z,57.37
2019-04-29T10:22:38.476Z,57.67
2019-04-29T10:25:10.086Z,58.45
2019-04-29T10:27:41.610Z,58.31
2019-04-29T10:30:13.919Z,57.67
2019-04-29T10:32:45.485Z,56.25
2019-04-29T10:35:17.620Z,56.00
2019-04-29T10:37:49.043Z,57.18
2019-04-29T10:40:35.724Z,56.02
2019-04-29T10:43:27.134Z,56.24
2019-04-29T10:46:36.252Z,56.59
2019-04-29T10:49:14.210Z,55.62
2019-04-29T10:51:45.786Z,55.20
2019-04-29T10:54:17.420Z,55.10
2019-04-29T10:56:49.776Z,54.63
2019-04-29T10:59:34.992Z,53.79
2019-04-29T11:02:40.327Z,55.57
2019-04-29T11:05:59.892Z,55.44
2019-04-29T11:08:38.137Z,55.00
2019-04-29T11:11:22.749Z,55.20
2019-04-29T11:13:50.169Z,55.97
2019-04-29T11:16:22.940Z,56.03
2019-04-29T11:18:55.182Z,55.31
2019-04-29T11:21:29.451Z,55.89
2019-04-29T11:24:10.138Z,56.30
2019-04-29T11:26:55.742Z,55.42
2019-04-29T11:29:28.813Z,57.11
2019-04-29T11:32:01.840Z,58.90
2019-04-29T11:34:48.616Z,57.97
2019-04-29T11:37:19.960Z,58.57
2019-04-29T11:39:51.678Z,55.54
2019-04-29T11:42:23.493Z,57.06
2019-04-29T11:44:57.172Z,57.60
2019-04-29T11:47:27.856Z,56.19
2019-04-29T11:50:26.672Z,59.06
2019-04-29T11:52:59.776Z,58.07
2019-04-29T11:55:31.085Z,59.96
2019-04-29T11:58:08.347Z,61.29
2019-04-29T12:00:58.793Z,61.05
2019-04-29T12:03:37.478Z,61.84
2019-04-29T12:06:10.667Z,61.93
2019-04-29T12:08:42.536Z,65.52
2019-04-29T12:11:15.079Z,64.88
2019-04-29T12:14:12.133Z,63.45
2019-04-29T12:16:49.811Z,66.49
2019-04-29T12:19:26.837Z,62.95
2019-04-29T12:21:58.899Z,62.91
2019-04-29T12:24:30.312Z,61.52
2019-04-29T12:27:01.677Z,62.92
2019-04-29T12:29:33.096Z,62.13
2019-04-29T12:32:26.616Z,63.12
2019-04-29T12:35:08.662Z,63.95
2019-04-29T12:37:53.259Z,68.97
2019-04-29T12:40:45.549Z,71.29
2019-04-29T12:43:54.140Z,72.83
2019-04-29T12:46:27.599Z,77.71
2019-04-29T12:48:59.521Z,75.30
2019-04-29T12:51:32.554Z,75.76
2019-04-29T12:54:03.912Z,77.30
2019-04-29T12:56:37.359Z,76.29
2019-04-29T12:59:08.691Z,77.09
2019-04-29T13:02:02.331Z,78.25
2019-04-29T13:04:51.834Z,77.82
2019-04-29T13:07:42.996Z,76.49
2019-04-29T13:10:20.023Z,77.55
2019-04-29T13:12:51.566Z,73.36
2019-04-29T13:15:48.420Z,76.69
2019-04-29T13:18:32.883Z,76.12
2019-04-29T13:21:10.230Z,75.26
2019-04-29T13:23:55.013Z,72.88
2019-04-29T13:26:10.846Z,74.06
2019-04-29T13:28:59.002Z,72.08
2019-04-29T13:31:20.020Z,74.10
2019-04-29T13:33:52.846Z,74.28
2019-04-29T13:36:26.047Z,72.86
2019-04-29T13:38:56.962Z,73.05
2019-04-29T13:41:28.801Z,75.97
2019-04-29T13:44:05.266Z,73.54
2019-04-29T13:46:53.964Z,75.11
2019-04-29T13:49:33.510Z,75.90
2019-04-29T13:52:05.201Z,75.70
2019-04-29T13:54:37.230Z,72.73
2019-04-29T13:57:15.672Z,75.07
2019-04-29T13:59:50.615Z,74.29
2019-04-29T14:02:32.314Z,73.67
2019-04-29T14:05:03.393Z,73.94
2019-04-29T14:07:34.726Z,71.21
2019-04-29T14:10:10.227Z,73.22
2019-04-29T14:12:48.815Z,72.17
2019-04-29T14:15:14.873Z,72.85
2019-04-29T14:17:46.506Z,72.41
2019-04-29T14:20:18.234Z,72.37
2019-04-29T14:22:49.488Z,72.05
2019-04-29T14:25:20.760Z,72.58
2019-04-29T14:27:52.186Z,73.00
2019-04-29T14:30:38.032Z,74.26
2019-04-29T14:33:01.915Z,73.66
2019-04-29T14:35:39.264Z,73.72
2019-04-29T14:38:10.449Z,73.78
2019-04-29T14:40:42.783Z,75.23
2019-04-29T14:43:28.706Z,75.62
2019-04-29T14:46:16.295Z,75.71
2019-04-29T14:49:11.496Z,76.10
2019-04-29T14:51:42.851Z,78.58
2019-04-29T14:54:14.245Z,78.66
2019-04-29T14:56:45.576Z,79.16
2019-04-29T14:59:17.371Z,80.03
2019-04-29T15:01:54.273Z,81.21
2019-04-29T15:04:28.447Z,81.44
2019-04-29T15:06:59.931Z,81.91
2019-04-29T15:09:31.336Z,82.70
2019-04-29T15:12:21.858Z,82.16
2019-04-29T15:15:05.854Z,82.26
2019-04-29T15:17:47.821Z,83.50
2019-04-29T15:20:30.018Z,84.71
2019-04-29T15:23:02.250Z,86.24
2019-04-29T15:25:33.468Z,86.59
2019-04-29T15:28:04.993Z,86.12
2019-04-29T15:30:37.133Z,88.24
2019-04-29T15:33:09.442Z,86.83
2019-04-29T15:35:40.696Z,87.33
2019-04-29T15:38:12.026Z,88.35
2019-04-29T15:40:43.466Z,87.51
2019-04-29T15:43:17.880Z,88.25
2019-04-29T15:45:47.893Z,88.53
2019-04-29T15:48:19.146Z,87.13
2019-04-29T15:50:50.506Z,88.22
2019-04-29T15:53:22.027Z,89.46
2019-04-29T15:56:06.205Z,89.61
2019-04-29T15:58:27.757Z,89.57
2019-04-29T16:01:13.027Z,88.70
2019-04-29T16:03:37.084Z,88.30
2019-04-29T16:09:04.578Z,89.08
2019-04-29T16:14:39.175Z,90.62
2019-04-29T16:17:10.500Z,90.08
2019-04-29T16:19:41.667Z,89.65
2019-04-29T16:22:19.820Z,89.08
2019-04-29T16:24:46.072Z,90.32
2019-04-29T16:27:17.672Z,90.77
2019-04-29T16:29:51.583Z,91.02
2019-04-29T16:32:31.469Z,91.02
2019-04-29T16:35:03.048Z,91.08
2019-04-29T16:37:34.799Z,91.21
2019-04-29T16:40:07.268Z,90.97
2019-04-29T16:42:45.752Z,91.71
2019-04-29T16:45:17.548Z,92.17
2019-04-29T16:47:49.320Z,90.65
2019-04-29T16:50:20.649Z,91.12
2019-04-29T16:52:52.202Z,92.12
2019-04-29T16:55:23.747Z,92.06
2019-04-29T16:57:59.656Z,91.72
2019-04-29T17:00:32.023Z,91.50
2019-04-29T17:03:03.469Z,91.17
2019-04-29T17:05:35.967Z,91.80
2019-04-29T17:08:09.263Z,91.80
2019-04-29T17:11:03.851Z,92.52
2019-04-29T17:13:35.106Z,92.30
2019-04-29T17:16:08.709Z,93.27
2019-04-29T17:18:40.033Z,92.62
2019-04-29T17:21:11.804Z,93.27
2019-04-29T17:23:43.315Z,93.61
2019-04-29T17:26:14.578Z,93.15
2019-04-29T17:29:37.912Z,93.71
2019-04-29T17:32:21.365Z,93.97
2019-04-29T17:34:59.608Z,94.91
2019-04-29T17:35:13.991Z,89.77
2019-04-29T17:35:15.559Z,89.00
2019-04-29T17:37:26.592Z,95.30
2019-04-29T17:39:58.201Z,95.32
2019-04-29T17:42:31.200Z,94.96
2019-04-29T17:45:10.577Z,95.06
2019-04-29T17:47:52.443Z,95.57
2019-04-29T17:50:38.482Z,94.70
2019-04-29T17:53:17.553Z,95.05
2019-04-29T17:55:58.190Z,95.21
2019-04-29T17:58:37.084Z,94.78
2019-04-29T18:01:26.278Z,95.49
2019-04-29T18:04:11.781Z,95.61
2019-04-29T18:06:49.890Z,96.23
2019-04-29T18:09:47.488Z,95.66
2019-04-29T18:12:22.180Z,95.48
2019-04-29T18:14:55.102Z,96.50
2019-04-29T18:17:31.431Z,96.18
2019-04-29T18:20:32.870Z,95.19
2019-04-29T18:23:11.114Z,94.81
2019-04-29T18:25:56.929Z,94.09
2019-04-29T18:28:29.287Z,94.06
2019-04-29T18:31:00.633Z,94.37
2019-04-29T18:33:31.927Z,94.33
2019-04-29T18:36:06.378Z,93.98
2019-04-29T18:38:36.676Z,93.87
2019-04-29T18:41:08.588Z,94.90
2019-04-29T18:43:39.976Z,94.59
2019-04-29T18:46:12.757Z,95.21
2019-04-29T18:48:45.711Z,94.93
2019-04-29T18:51:20.892Z,95.04
2019-04-29T18:53:50.293Z,95.78
2019-04-29T18:56:21.529Z,96.12
2019-04-29T18:58:52.817Z,96.25
2019-04-29T19:01:28.996Z,96.12
2019-04-29T19:04:07.377Z,96.28
2019-04-29T19:06:36.202Z,96.13
2019-04-29T19:09:17.476Z,95.94
2019-04-29T19:11:42.996Z,95.66
2019-04-29T19:14:15.118Z,95.94
2019-04-29T19:16:46.541Z,96.15
2019-04-29T19:19:18.862Z,96.31
2019-04-29T19:21:50.219Z,96.58
2019-04-29T19:24:21.743Z,96.90
2019-04-29T19:26:55.683Z,97.05
2019-04-29T19:29:26.288Z,96.58
2019-04-29T19:31:57.698Z,96.43
2019-04-29T19:34:39.981Z,96.64
2019-04-29T19:37:02.737Z,96.54
2019-04-29T19:39:34.976Z,96.99
2019-04-29T19:42:06.665Z,96.92
2019-04-29T19:44:38.036Z,97.18
2019-04-29T19:47:10.850Z,96.98
2019-04-29T19:49:44.711Z,97.52
2019-04-29T19:52:18.783Z,97.07
2019-04-29T19:54:49.124Z,97.39
2019-04-29T19:57:20.566Z,97.48
2019-04-29T19:59:54.292Z,97.22
2019-04-29T20:02:26.149Z,96.90
2019-04-29T20:05:08.401Z,97.54
2019-04-29T20:07:42.325Z,97.92
2019-04-29T20:10:14.982Z,97.88
2019-04-29T20:12:53.304Z,97.77
2019-04-29T20:15:20.486Z,98.01
2019-04-29T20:18:09.885Z,98.13
2019-04-29T20:20:51.162Z,97.98
2019-04-29T20:23:26.353Z,98.33
2019-04-29T20:26:05.777Z,98.29
2019-04-29T20:28:29.292Z,98.56
2019-04-29T20:31:15.500Z,98.59
2019-04-29T20:33:33.914Z,98.31
2019-04-29T20:36:06.163Z,98.80
2019-04-29T20:38:39.075Z,98.89
2019-04-29T20:41:12.943Z,99.28
2019-04-29T20:43:45.903Z,99.40
2019-04-29T20:46:18.074Z,98.98
2019-04-29T20:48:50.510Z,99.53
2019-04-29T20:51:27.404Z,99.47
2019-04-29T20:54:09.094Z,99.54
2019-04-29T20:56:41.588Z,99.60
2019-04-29T20:59:15.330Z,99.47
2019-04-29T21:01:50.968Z,99.57
2019-04-29T21:04:32.012Z,99.76
2019-04-29T21:07:00.532Z,99.86
2019-04-29T21:09:30.167Z,99.90
2019-04-29T21:12:25.462Z,99.58
2019-04-29T21:14:59.616Z,99.76
2019-04-29T21:17:31.957Z,100.00
2019-04-29T21:20:03.321Z,100.00
2019-04-29T21:22:35.676Z,100.00
2019-04-29T21:25:07.964Z,100.00
2019-04-29T21:27:39.289Z,100.00
2019-04-29T21:30:11.293Z,100.00
2019-04-29T21:32:42.456Z,100.00
2019-04-29T21:35:23.105Z,100.00
2019-04-29T21:38:17.808Z,100.00
2019-04-29T21:40:56.032Z,100.00
2019-04-29T21:43:28.845Z,100.00
2019-04-29T21:46:00.503Z,100.00
2019-04-29T21:48:33.776Z,100.00
2019-04-29T21:51:06.868Z,100.00
2019-04-29T21:53:40.265Z,100.00
2019-04-29T21:56:11.096Z,100.00
2019-04-29T21:58:42.397Z,100.00
2019-04-29T22:01:15.315Z,100.00
2019-04-29T22:03:48.818Z,100.00
2019-04-29T22:06:20.535Z,100.00
2019-04-29T22:08:54.236Z,100.00
2019-04-29T22:11:25.722Z,100.00
2019-04-29T22:13:57.394Z,100.00
2019-04-29T22:16:28.739Z,100.00
2019-04-29T22:19:00.127Z,100.00
2019-04-29T22:21:31.777Z,100.00
2019-04-29T22:24:03.036Z,100.00
2019-04-29T22:26:35.018Z,100.00
2019-04-29T22:29:06.791Z,100.00
2019-04-29T22:31:38.613Z,100.00
2019-04-29T22:34:15.120Z,100.00
2019-04-29T22:36:43.019Z,100.00
2019-04-29T22:39:15.851Z,100.00
2019-04-29T22:42:18.213Z,100.00
2019-04-29T22:44:52.572Z,100.00
2019-04-29T22:47:23.942Z,100.00
2019-04-29T22:49:58.697Z,100.00
2019-04-29T22:52:29.860Z,100.00
2019-04-29T22:55:02.548Z,100.00
2019-04-29T22:57:34.106Z,100.00
2019-04-29T23:00:06.979Z,100.00
2019-04-29T23:02:39.775Z,100.00
2019-04-29T23:05:11.485Z,100.00
2019-04-29T23:07:42.797Z,100.00
2019-04-29T23:10:19.712Z,100.00
2019-04-29T23:12:49.255Z,100.00
2019-04-29T23:15:23.509Z,100.00
2019-04-29T23:17:54.045Z,100.00
2019-04-29T23:20:47.233Z,100.00
2019-04-29T23:23:27.298Z,100.00
2019-04-29T23:25:59.959Z,100.00
2019-04-29T23:28:29.859Z,100.00
2019-04-29T23:31:01.428Z,100.00
2019-04-29T23:33:35.981Z,100.00
2019-04-29T23:36:09.598Z,100.00
2019-04-29T23:38:42.706Z,100.00
2019-04-29T23:41:15.306Z,100.00
2019-04-29T23:43:46.805Z,100.00
2019-04-29T23:46:18.049Z,100.00
2019-04-29T23:48:49.306Z,100.00
2019-04-29T23:51:20.533Z,100.00
2019-04-29T23:53:51.705Z,100.00
2019-04-29T23:56:24.636Z,100.00
2019-04-29T23:59:01.538Z,100.00
